createdAt,value
2023-04-06T00:00:20.470Z,0.00
2023-04-06T00:01:20.447Z,0.00
2023-04-06T00:02:20.474Z,0.00
2023-04-06T00:03:20.562Z,0.00
2023-04-06T00:04:20.462Z,0.00
2023-04-06T00:05:20.479Z,0.00
2023-04-06T00:06:20.461Z,0.00
2023-04-06T00:07:20.474Z,0.00
2023-04-06T00:08:20.490Z,0.00
2023-04-06T00:09:20.475Z,0.00
2023-04-06T00:10:20.475Z,0.00
2023-04-06T00:11:20.497Z,0.00
2023-04-06T00:12:20.480Z,0.00
2023-04-06T00:13:20.485Z,0.00
2023-04-06T00:14:20.489Z,0.00
2023-04-06T00:15:20.491Z,0.00
2023-04-06T00:16:20.710Z,0.00
2023-04-06T00:17:20.505Z,0.00
2023-04-06T00:18:20.511Z,0.00
2023-04-06T00:19:20.502Z,0.00
2023-04-06T00:20:20.522Z,0.00
2023-04-06T00:21:20.525Z,0.00
2023-04-06T00:22:20.511Z,0.00
2023-04-06T00:23:20.518Z,0.00
2023-04-06T00:24:20.532Z,0.00
2023-04-06T00:25:20.518Z,0.00
2023-04-06T00:26:20.522Z,0.00
2023-04-06T00:27:20.525Z,0.00
2023-04-06T00:28:20.541Z,0.00
2023-04-06T00:29:20.535Z,0.00
2023-04-06T00:30:20.540Z,0.00
2023-04-06T00:31:20.537Z,0.00
2023-04-06T00:32:20.580Z,0.00
2023-04-06T00:33:20.544Z,0.00
2023-04-06T00:34:20.556Z,0.00
2023-04-06T00:35:20.568Z,0.00
2023-04-06T00:36:20.638Z,0.00
2023-04-06T00:37:20.559Z,0.00
2023-04-06T00:38:20.557Z,0.00
2023-04-06T00:39:21.163Z,0.00
2023-04-06T00:40:20.612Z,0.00
2023-04-06T00:41:20.601Z,0.00
2023-04-06T00:42:20.569Z,0.00
2023-04-06T00:43:20.590Z,0.00
2023-04-06T00:44:20.612Z,0.00
2023-04-06T00:45:20.592Z,0.00
2023-04-06T00:46:20.647Z,0.00
2023-04-06T00:47:20.587Z,0.00
2023-04-06T00:48:20.584Z,0.00
2023-04-06T00:49:20.600Z,0.00
2023-04-06T00:50:20.594Z,0.00
2023-04-06T00:51:20.597Z,0.00
2023-04-06T00:52:20.597Z,0.00
2023-04-06T00:53:20.605Z,0.00
2023-04-06T00:54:20.603Z,0.00
2023-04-06T00:55:20.611Z,0.00
2023-04-06T00:56:20.633Z,0.00
2023-04-06T00:57:20.624Z,0.00
2023-04-06T00:58:20.616Z,0.00
2023-04-06T00:59:20.646Z,0.00
2023-04-06T01:00:20.633Z,0.00
2023-04-06T01:01:20.684Z,0.00
2023-04-06T01:02:20.672Z,0.00
2023-04-06T01:03:20.633Z,0.00
2023-04-06T01:04:20.646Z,0.00
2023-04-06T01:05:20.696Z,0.00
2023-04-06T01:06:20.659Z,0.00
2023-04-06T01:07:20.646Z,0.00
2023-04-06T01:08:20.657Z,0.00
2023-04-06T01:09:20.657Z,0.00
2023-04-06T01:10:20.651Z,0.00
2023-04-06T01:11:20.656Z,0.00
2023-04-06T01:12:20.679Z,0.00
2023-04-06T01:13:20.658Z,0.00
2023-04-06T01:14:20.662Z,0.00
2023-04-06T01:15:20.667Z,0.00
2023-04-06T01:16:20.703Z,0.00
2023-04-06T01:17:20.670Z,0.00
2023-04-06T01:18:20.674Z,0.00
2023-04-06T01:19:20.681Z,0.00
2023-04-06T01:20:20.682Z,0.00
2023-04-06T01:21:20.686Z,0.00
2023-04-06T01:22:20.684Z,0.00
2023-04-06T01:23:20.687Z,0.00
2023-04-06T01:24:20.686Z,0.00
2023-04-06T01:25:20.691Z,0.00
2023-04-06T01:26:20.694Z,0.00
2023-04-06T01:27:20.698Z,0.00
2023-04-06T01:28:20.718Z,0.00
2023-04-06T01:29:20.708Z,0.00
2023-04-06T01:30:20.711Z,0.00
2023-04-06T01:31:20.726Z,0.00
2023-04-06T01:32:20.709Z,0.00
2023-04-06T01:33:20.715Z,0.00
2023-04-06T01:34:20.715Z,0.00
2023-04-06T01:35:20.756Z,0.00
2023-04-06T01:36:20.736Z,0.00
2023-04-06T01:37:20.724Z,0.00
2023-04-06T01:38:20.723Z,0.00
2023-04-06T01:39:20.736Z,0.00
2023-04-06T01:40:20.730Z,0.00
2023-04-06T01:41:20.737Z,0.00
2023-04-06T01:42:20.745Z,0.00
2023-04-06T01:43:20.746Z,0.00
2023-04-06T01:44:20.772Z,0.00
2023-04-06T01:45:20.745Z,0.00
2023-04-06T01:46:20.764Z,0.00
2023-04-06T01:47:20.776Z,0.00
2023-04-06T01:48:20.753Z,0.00
2023-04-06T01:49:20.772Z,0.00
2023-04-06T01:50:20.757Z,0.00
2023-04-06T01:51:20.758Z,0.00
2023-04-06T01:52:20.758Z,0.00
2023-04-06T01:53:20.771Z,0.00
2023-04-06T01:54:20.763Z,0.00
2023-04-06T01:55:20.781Z,0.00
2023-04-06T01:56:20.767Z,0.00
2023-04-06T01:57:20.772Z,0.00
2023-04-06T01:58:20.779Z,0.00
2023-04-06T01:59:20.839Z,0.00
2023-04-06T02:00:20.805Z,0.00
2023-04-06T02:01:20.818Z,0.00
2023-04-06T02:02:20.848Z,0.00
2023-04-06T02:03:20.813Z,0.00
2023-04-06T02:04:20.786Z,0.00
2023-04-06T02:05:20.790Z,0.00
2023-04-06T02:06:20.790Z,0.00
2023-04-06T02:07:20.798Z,0.00
2023-04-06T02:08:20.801Z,0.00
2023-04-06T02:09:20.801Z,0.00
2023-04-06T02:10:20.800Z,0.00
2023-04-06T02:11:20.810Z,0.00
2023-04-06T02:12:20.804Z,0.00
2023-04-06T02:13:20.812Z,0.00
2023-04-06T02:14:20.811Z,0.00
2023-04-06T02:15:20.810Z,0.00
2023-04-06T02:16:20.891Z,0.00
2023-04-06T02:17:20.845Z,0.00
2023-04-06T02:18:20.823Z,0.00
2023-04-06T02:19:20.820Z,0.00
2023-04-06T02:20:20.826Z,0.00
2023-04-06T02:21:20.827Z,0.00
2023-04-06T02:22:20.838Z,0.00
2023-04-06T02:23:20.827Z,0.00
2023-04-06T02:24:20.841Z,0.00
2023-04-06T02:25:20.836Z,0.00
2023-04-06T02:26:20.840Z,0.00
2023-04-06T02:27:20.841Z,0.00
2023-04-06T02:28:20.844Z,0.00
2023-04-06T02:29:20.848Z,0.00
2023-04-06T02:30:20.850Z,0.00
2023-04-06T02:31:20.888Z,0.00
2023-04-06T02:32:20.974Z,0.00
2023-04-06T02:33:20.865Z,0.00
2023-04-06T02:34:20.865Z,0.00
2023-04-06T02:35:20.902Z,0.00
2023-04-06T02:36:20.865Z,0.00
2023-04-06T02:37:20.871Z,0.00
2023-04-06T02:38:20.869Z,0.00
2023-04-06T02:39:20.871Z,0.00
2023-04-06T02:40:20.874Z,0.00
2023-04-06T02:41:20.874Z,0.00
2023-04-06T02:42:20.883Z,0.00
2023-04-06T02:43:20.902Z,0.00
2023-04-06T02:44:20.887Z,0.00
2023-04-06T02:45:20.884Z,0.00
2023-04-06T02:46:20.937Z,0.00
2023-04-06T02:47:20.898Z,0.00
2023-04-06T02:48:20.955Z,0.00
2023-04-06T02:49:20.896Z,0.00
2023-04-06T02:50:20.907Z,0.00
2023-04-06T02:51:20.898Z,0.00
2023-04-06T02:52:20.911Z,0.00
2023-04-06T02:53:20.911Z,0.00
2023-04-06T02:54:20.922Z,0.00
2023-04-06T02:55:22.289Z,0.00
2023-04-06T02:56:20.917Z,0.00
2023-04-06T02:57:20.951Z,0.00
2023-04-06T02:58:20.921Z,0.00
2023-04-06T02:59:20.945Z,0.00
2023-04-06T03:00:20.931Z,0.00
2023-04-06T03:01:21.009Z,0.00
2023-04-06T03:02:21.018Z,0.00
2023-04-06T03:03:20.981Z,0.00
2023-04-06T03:04:20.954Z,0.00
2023-04-06T03:05:20.934Z,0.00
2023-04-06T03:06:20.940Z,0.00
2023-04-06T03:07:20.939Z,0.00
2023-04-06T03:08:20.945Z,0.00
2023-04-06T03:09:20.946Z,0.00
2023-04-06T03:10:20.956Z,0.00
2023-04-06T03:11:20.968Z,0.00
2023-04-06T03:12:20.959Z,0.00
2023-04-06T03:13:20.953Z,0.00
2023-04-06T03:14:20.958Z,0.00
2023-04-06T03:15:20.963Z,0.00
2023-04-06T03:16:21.056Z,0.00
2023-04-06T03:17:20.967Z,0.00
2023-04-06T03:18:20.967Z,0.00
2023-04-06T03:19:20.967Z,0.00
2023-04-06T03:20:21.003Z,0.00
2023-04-06T03:21:20.975Z,0.00
2023-04-06T03:22:20.978Z,0.00
2023-04-06T03:23:20.975Z,0.00
2023-04-06T03:24:20.984Z,0.00
2023-04-06T03:25:20.987Z,0.00
2023-04-06T03:26:20.986Z,0.00
2023-04-06T03:27:20.984Z,0.00
2023-04-06T03:28:20.989Z,0.00
2023-04-06T03:29:20.993Z,0.00
2023-04-06T03:30:21.002Z,0.00
2023-04-06T03:31:21.008Z,0.00
2023-04-06T03:32:21.002Z,0.00
2023-04-06T03:33:20.995Z,0.00
2023-04-06T03:34:21.005Z,0.00
2023-04-06T03:35:21.035Z,0.00
2023-04-06T03:36:21.031Z,0.00
2023-04-06T03:37:21.006Z,0.00
2023-04-06T03:38:21.012Z,0.00
2023-04-06T03:39:21.011Z,0.00
2023-04-06T03:40:21.023Z,0.00
2023-04-06T03:41:21.015Z,0.00
2023-04-06T03:42:21.023Z,0.00
2023-04-06T03:43:21.033Z,0.00
2023-04-06T03:44:21.039Z,0.00
2023-04-06T03:45:21.025Z,0.00
2023-04-06T03:46:21.064Z,0.00
2023-04-06T03:47:21.045Z,0.00
2023-04-06T03:48:21.036Z,0.00
2023-04-06T03:49:21.048Z,0.00
2023-04-06T03:50:21.041Z,0.00
2023-04-06T03:51:21.040Z,0.00
2023-04-06T03:52:21.076Z,0.00
2023-04-06T03:53:21.044Z,0.00
2023-04-06T03:54:21.048Z,0.00
2023-04-06T03:55:21.068Z,0.00
2023-04-06T03:56:21.056Z,0.00
2023-04-06T03:57:21.053Z,0.00
2023-04-06T03:58:21.086Z,0.00
2023-04-06T03:59:21.074Z,0.00
2023-04-06T04:00:21.071Z,0.00
2023-04-06T04:01:21.063Z,0.00
2023-04-06T04:02:21.164Z,0.00
2023-04-06T04:03:21.161Z,0.00
2023-04-06T04:04:21.074Z,0.00
2023-04-06T04:05:21.099Z,0.00
2023-04-06T04:06:21.096Z,0.00
2023-04-06T04:07:21.079Z,0.00
2023-04-06T04:08:21.105Z,0.00
2023-04-06T04:09:21.079Z,0.00
2023-04-06T04:10:21.102Z,0.00
2023-04-06T04:11:21.085Z,0.00
2023-04-06T04:12:21.087Z,0.00
2023-04-06T04:13:21.092Z,0.00
2023-04-06T04:14:21.105Z,0.00
2023-04-06T04:15:21.091Z,0.00
2023-04-06T04:16:21.103Z,0.00
2023-04-06T04:17:21.129Z,0.00
2023-04-06T04:18:21.100Z,0.00
2023-04-06T04:19:21.106Z,0.00
2023-04-06T04:20:21.104Z,0.00
2023-04-06T04:21:21.112Z,0.00
2023-04-06T04:22:21.130Z,0.00
2023-04-06T04:23:21.106Z,0.00
2023-04-06T04:24:21.133Z,0.00
2023-04-06T04:25:21.116Z,0.00
2023-04-06T04:26:21.122Z,0.00
2023-04-06T04:27:21.115Z,0.00
2023-04-06T04:28:21.130Z,0.00
2023-04-06T04:29:21.123Z,0.00
2023-04-06T04:30:21.178Z,0.00
2023-04-06T04:31:21.124Z,0.00
2023-04-06T04:32:21.221Z,0.00
2023-04-06T04:33:21.133Z,0.00
2023-04-06T04:34:21.157Z,0.00
2023-04-06T04:35:21.185Z,0.00
2023-04-06T04:36:21.150Z,0.00
2023-04-06T04:37:21.171Z,0.00
2023-04-06T04:38:21.148Z,0.00
2023-04-06T04:39:21.149Z,0.00
2023-04-06T04:40:21.175Z,0.00
2023-04-06T04:41:21.171Z,0.00
2023-04-06T04:42:21.155Z,0.00
2023-04-06T04:43:21.170Z,0.00
2023-04-06T04:44:21.181Z,0.00
2023-04-06T04:45:21.162Z,0.00
2023-04-06T04:46:21.255Z,0.00
2023-04-06T04:47:21.171Z,4.00
2023-04-06T04:48:21.178Z,0.00
2023-04-06T04:49:21.173Z,4.00
2023-04-06T04:50:21.182Z,0.00
2023-04-06T04:51:21.187Z,0.00
2023-04-06T04:52:21.183Z,4.00
2023-04-06T04:53:22.563Z,0.00
2023-04-06T04:54:21.184Z,0.00
2023-04-06T04:55:21.220Z,0.00
2023-04-06T04:56:21.218Z,0.00
2023-04-06T04:57:21.185Z,4.00
2023-04-06T04:58:21.189Z,4.00
2023-04-06T04:59:21.272Z,4.00
2023-04-06T05:00:21.221Z,4.00
2023-04-06T05:01:21.260Z,4.00
2023-04-06T05:02:21.279Z,4.00
2023-04-06T05:03:21.295Z,8.00
2023-04-06T05:04:21.205Z,4.00
2023-04-06T05:05:21.218Z,4.00
2023-04-06T05:06:21.222Z,8.00
2023-04-06T05:07:21.211Z,8.00
2023-04-06T05:08:21.212Z,8.00
2023-04-06T05:09:21.210Z,12.00
2023-04-06T05:10:21.251Z,12.00
2023-04-06T05:11:21.216Z,8.00
2023-04-06T05:12:21.243Z,12.00
2023-04-06T05:13:21.217Z,12.00
2023-04-06T05:14:21.225Z,12.00
2023-04-06T05:15:21.225Z,16.00
2023-04-06T05:16:21.293Z,12.00
2023-04-06T05:17:21.228Z,16.00
2023-04-06T05:18:21.234Z,16.00
2023-04-06T05:19:21.246Z,16.00
2023-04-06T05:20:21.239Z,20.00
2023-04-06T05:21:21.244Z,16.00
2023-04-06T05:22:21.246Z,20.00
2023-04-06T05:23:21.244Z,24.00
2023-04-06T05:24:21.259Z,20.00
2023-04-06T05:25:21.261Z,24.00
2023-04-06T05:26:21.252Z,20.00
2023-04-06T05:27:21.256Z,24.00
2023-04-06T05:28:21.280Z,28.00
2023-04-06T05:29:21.263Z,24.00
2023-04-06T05:30:21.265Z,28.00
2023-04-06T05:31:21.292Z,28.00
2023-04-06T05:32:21.267Z,32.00
2023-04-06T05:33:21.262Z,28.00
2023-04-06T05:34:21.269Z,32.00
2023-04-06T05:35:21.288Z,32.00
2023-04-06T05:36:21.273Z,32.00
2023-04-06T05:37:21.265Z,32.00
2023-04-06T05:38:21.278Z,32.00
2023-04-06T05:39:21.285Z,36.00
2023-04-06T05:40:21.273Z,36.00
2023-04-06T05:41:21.282Z,36.00
2023-04-06T05:42:21.286Z,36.00
2023-04-06T05:43:23.203Z,36.00
2023-04-06T05:44:21.317Z,40.00
2023-04-06T05:45:21.333Z,36.00
2023-04-06T05:46:21.347Z,40.00
2023-04-06T05:47:21.291Z,40.00
2023-04-06T05:48:21.322Z,40.00
2023-04-06T05:49:21.281Z,44.00
2023-04-06T05:50:21.306Z,40.00
2023-04-06T05:51:21.287Z,40.00
2023-04-06T05:52:21.293Z,44.00
2023-04-06T05:53:21.291Z,44.00
2023-04-06T05:54:21.301Z,44.00
2023-04-06T05:55:21.290Z,44.00
2023-04-06T05:56:21.299Z,44.00
2023-04-06T05:57:21.317Z,48.00
2023-04-06T05:58:21.305Z,48.00
2023-04-06T05:59:21.337Z,48.00
2023-04-06T06:00:21.322Z,48.00
2023-04-06T06:01:21.307Z,48.00
2023-04-06T06:02:21.377Z,48.00
2023-04-06T06:03:21.357Z,48.00
2023-04-06T06:04:21.316Z,52.00
2023-04-06T06:05:21.337Z,52.00
2023-04-06T06:06:21.327Z,52.00
2023-04-06T06:07:21.327Z,52.00
2023-04-06T06:08:21.319Z,52.00
2023-04-06T06:09:21.320Z,52.00
2023-04-06T06:10:21.322Z,56.00
2023-04-06T06:11:21.321Z,56.00
2023-04-06T06:12:21.331Z,56.00
2023-04-06T06:13:21.333Z,56.00
2023-04-06T06:14:21.367Z,56.00
2023-04-06T06:15:21.339Z,56.00
2023-04-06T06:16:21.396Z,56.00
2023-04-06T06:17:21.369Z,56.00
2023-04-06T06:18:21.336Z,56.00
2023-04-06T06:19:21.335Z,60.00
2023-04-06T06:20:21.340Z,60.00
2023-04-06T06:21:21.348Z,60.00
2023-04-06T06:22:21.345Z,60.00
2023-04-06T06:23:21.345Z,64.00
2023-04-06T06:24:21.350Z,76.00
2023-04-06T06:25:21.352Z,84.00
2023-04-06T06:26:21.355Z,88.00
2023-04-06T06:27:21.420Z,88.00
2023-04-06T06:28:21.361Z,92.00
2023-04-06T06:29:21.361Z,92.00
2023-04-06T06:30:23.315Z,92.00
2023-04-06T06:31:21.399Z,92.00
2023-04-06T06:32:21.625Z,92.00
2023-04-06T06:33:21.375Z,96.00
2023-04-06T06:34:21.372Z,96.00
2023-04-06T06:35:21.418Z,96.00
2023-04-06T06:36:21.375Z,96.00
2023-04-06T06:37:21.377Z,96.00
2023-04-06T06:38:23.535Z,100.00
2023-04-06T06:39:21.386Z,100.00
2023-04-06T06:40:21.408Z,104.00
2023-04-06T06:41:21.388Z,104.00
2023-04-06T06:42:21.395Z,104.00
2023-04-06T06:43:21.389Z,108.00
2023-04-06T06:44:21.392Z,108.00
2023-04-06T06:45:21.422Z,108.00
2023-04-06T06:46:21.446Z,108.00
2023-04-06T06:47:21.460Z,108.00
2023-04-06T06:48:21.450Z,108.00
2023-04-06T06:49:21.419Z,112.00
2023-04-06T06:50:21.406Z,112.00
2023-04-06T06:51:21.428Z,116.00
2023-04-06T06:52:21.413Z,112.00
2023-04-06T06:53:21.420Z,116.00
2023-04-06T06:54:21.415Z,116.00
2023-04-06T06:55:21.437Z,120.00
2023-04-06T06:56:21.436Z,116.00
2023-04-06T06:57:21.430Z,120.00
2023-04-06T06:58:21.504Z,124.00
2023-04-06T06:59:21.458Z,120.00
2023-04-06T07:00:21.440Z,124.00
2023-04-06T07:01:21.509Z,128.00
2023-04-06T07:02:21.488Z,128.00
2023-04-06T07:03:21.444Z,128.00
2023-04-06T07:04:21.559Z,132.00
2023-04-06T07:05:28.130Z,132.00
2023-04-06T07:06:21.446Z,132.00
2023-04-06T07:07:21.450Z,132.00
2023-04-06T07:08:21.478Z,136.00
2023-04-06T07:09:21.477Z,136.00
2023-04-06T07:10:21.472Z,136.00
2023-04-06T07:11:21.461Z,136.00
2023-04-06T07:12:21.474Z,140.00
2023-04-06T07:13:21.478Z,140.00
2023-04-06T07:14:21.487Z,140.00
2023-04-06T07:15:21.484Z,144.00
2023-04-06T07:16:21.529Z,144.00
2023-04-06T07:17:21.534Z,148.00
2023-04-06T07:18:21.476Z,148.00
2023-04-06T07:19:21.500Z,148.00
2023-04-06T07:20:21.520Z,152.00
2023-04-06T07:21:21.490Z,152.00
2023-04-06T07:22:21.488Z,152.00
2023-04-06T07:23:21.503Z,156.00
2023-04-06T07:24:21.526Z,152.00
2023-04-06T07:25:23.603Z,156.00
2023-04-06T07:26:21.523Z,160.00
2023-04-06T07:27:21.519Z,164.00
2023-04-06T07:28:21.506Z,164.00
2023-04-06T07:29:21.533Z,164.00
2023-04-06T07:30:21.530Z,168.00
2023-04-06T07:31:21.559Z,168.00
2023-04-06T07:32:21.555Z,172.00
2023-04-06T07:33:21.533Z,172.00
2023-04-06T07:34:21.541Z,172.00
2023-04-06T07:35:21.560Z,176.00
2023-04-06T07:36:21.561Z,176.00
2023-04-06T07:37:21.542Z,176.00
2023-04-06T07:38:21.541Z,184.00
2023-04-06T07:39:21.544Z,184.00
2023-04-06T07:40:21.550Z,188.00
2023-04-06T07:41:21.553Z,188.00
2023-04-06T07:42:21.562Z,188.00
2023-04-06T07:43:21.559Z,192.00
2023-04-06T07:44:21.561Z,192.00
2023-04-06T07:45:21.580Z,196.00
2023-04-06T07:46:21.604Z,196.00
2023-04-06T07:47:21.603Z,200.00
2023-04-06T07:48:21.576Z,200.00
2023-04-06T07:49:21.589Z,204.00
2023-04-06T07:50:21.586Z,204.00
2023-04-06T07:51:21.591Z,204.00
2023-04-06T07:52:21.606Z,212.00
2023-04-06T07:53:21.593Z,212.00
2023-04-06T07:54:21.622Z,216.00
2023-04-06T07:55:21.599Z,216.00
2023-04-06T07:56:21.598Z,220.00
2023-04-06T07:57:21.608Z,220.00
2023-04-06T07:58:21.608Z,224.00
2023-04-06T07:59:21.662Z,228.00
2023-04-06T08:00:21.624Z,232.00
2023-04-06T08:01:21.627Z,232.00
2023-04-06T08:02:21.695Z,236.00
2023-04-06T08:03:21.810Z,236.00
2023-04-06T08:04:21.705Z,240.00
2023-04-06T08:05:21.649Z,244.00
2023-04-06T08:06:21.641Z,240.00
2023-04-06T08:07:21.644Z,248.00
2023-04-06T08:08:21.675Z,248.00
2023-04-06T08:09:21.656Z,252.00
2023-04-06T08:10:21.670Z,256.00
2023-04-06T08:11:21.665Z,260.00
2023-04-06T08:12:21.696Z,264.00
2023-04-06T08:13:21.681Z,268.00
2023-04-06T08:14:21.666Z,272.00
2023-04-06T08:15:21.682Z,272.00
2023-04-06T08:16:21.763Z,276.00
2023-04-06T08:17:21.694Z,280.00
2023-04-06T08:18:21.685Z,288.00
2023-04-06T08:19:21.687Z,288.00
2023-04-06T08:20:21.704Z,292.00
2023-04-06T08:21:21.697Z,296.00
2023-04-06T08:22:21.696Z,300.00
2023-04-06T08:23:21.705Z,296.00
2023-04-06T08:24:21.741Z,308.00
2023-04-06T08:25:21.715Z,312.00
2023-04-06T08:26:21.711Z,316.00
2023-04-06T08:27:21.776Z,320.00
2023-04-06T08:28:21.720Z,320.00
2023-04-06T08:29:21.731Z,312.00
2023-04-06T08:30:21.750Z,324.00
2023-04-06T08:31:21.772Z,332.00
2023-04-06T08:32:21.738Z,328.00
2023-04-06T08:33:21.754Z,320.00
2023-04-06T08:34:21.749Z,316.00
2023-04-06T08:35:21.786Z,324.00
2023-04-06T08:36:21.762Z,328.00
2023-04-06T08:37:21.772Z,344.00
2023-04-06T08:38:21.780Z,336.00
2023-04-06T08:39:21.773Z,344.00
2023-04-06T08:40:21.880Z,372.00
2023-04-06T08:41:21.784Z,376.00
2023-04-06T08:42:21.784Z,380.00
2023-04-06T08:43:21.792Z,384.00
2023-04-06T08:44:21.797Z,384.00
2023-04-06T08:45:21.801Z,388.00
2023-04-06T08:46:21.841Z,392.00
2023-04-06T08:47:24.679Z,396.00
2023-04-06T08:48:21.813Z,400.00
2023-04-06T08:49:21.820Z,408.00
2023-04-06T08:50:21.863Z,408.00
2023-04-06T08:51:21.829Z,416.00
2023-04-06T08:52:21.831Z,416.00
2023-04-06T08:53:24.182Z,420.00
2023-04-06T08:54:21.846Z,420.00
2023-04-06T08:55:21.847Z,428.00
2023-04-06T08:56:21.869Z,428.00
2023-04-06T08:57:21.862Z,432.00
2023-04-06T08:58:35.216Z,432.00
2023-04-06T08:59:21.913Z,440.00
2023-04-06T09:00:21.922Z,440.00
2023-04-06T09:01:21.876Z,448.00
2023-04-06T09:02:21.939Z,452.00
2023-04-06T09:03:22.015Z,456.00
2023-04-06T09:04:22.034Z,412.00
2023-04-06T09:05:21.895Z,452.00
2023-04-06T09:06:21.895Z,472.00
2023-04-06T09:07:21.917Z,476.00
2023-04-06T09:08:21.910Z,480.00
2023-04-06T09:09:24.674Z,472.00
2023-04-06T09:10:21.920Z,468.00
2023-04-06T09:11:21.931Z,492.00
2023-04-06T09:12:21.949Z,492.00
2023-04-06T09:13:21.941Z,496.00
2023-04-06T09:14:21.944Z,504.00
2023-04-06T09:15:24.347Z,508.00
2023-04-06T09:16:21.977Z,516.00
2023-04-06T09:17:21.968Z,524.00
2023-04-06T09:18:21.965Z,528.00
2023-04-06T09:19:21.972Z,536.00
2023-04-06T09:20:21.978Z,540.00
2023-04-06T09:21:24.649Z,552.00
2023-04-06T09:22:21.985Z,560.00
2023-04-06T09:23:22.008Z,564.00
2023-04-06T09:24:21.998Z,572.00
2023-04-06T09:25:22.016Z,576.00
2023-04-06T09:26:22.014Z,592.00
2023-04-06T09:27:22.026Z,604.00
2023-04-06T09:28:22.049Z,612.00
2023-04-06T09:29:22.038Z,624.00
2023-04-06T09:30:22.037Z,636.00
2023-04-06T09:31:22.050Z,644.00
2023-04-06T09:32:22.067Z,652.00
2023-04-06T09:33:22.064Z,664.00
2023-04-06T09:34:22.063Z,676.00
2023-04-06T09:35:22.137Z,680.00
2023-04-06T09:36:22.076Z,692.00
2023-04-06T09:37:22.080Z,704.00
2023-04-06T09:38:22.105Z,712.00
2023-04-06T09:39:22.096Z,724.00
2023-04-06T09:40:22.103Z,732.00
2023-04-06T09:41:22.109Z,748.00
2023-04-06T09:42:22.130Z,760.00
2023-04-06T09:43:22.124Z,760.00
2023-04-06T09:44:22.149Z,768.00
2023-04-06T09:45:22.185Z,772.00
2023-04-06T09:46:22.210Z,768.00
2023-04-06T09:47:22.212Z,776.00
2023-04-06T09:48:22.167Z,788.00
2023-04-06T09:49:22.159Z,784.00
2023-04-06T09:50:22.163Z,776.00
2023-04-06T09:51:22.204Z,812.00
2023-04-06T09:52:22.184Z,804.00
2023-04-06T09:53:22.186Z,824.00
2023-04-06T09:54:22.256Z,836.00
2023-04-06T09:55:22.206Z,844.00
2023-04-06T09:56:22.200Z,860.00
2023-04-06T09:57:22.223Z,880.00
2023-04-06T09:58:22.248Z,892.00
2023-04-06T09:59:22.296Z,896.00
2023-04-06T10:00:22.240Z,896.00
2023-04-06T10:01:22.260Z,900.00
2023-04-06T10:02:22.278Z,892.00
2023-04-06T10:03:22.401Z,916.00
2023-04-06T10:04:22.254Z,912.00
2023-04-06T10:05:22.265Z,932.00
2023-04-06T10:06:22.268Z,956.00
2023-04-06T10:07:22.277Z,944.00
2023-04-06T10:08:22.289Z,964.00
2023-04-06T10:09:22.289Z,960.00
2023-04-06T10:10:22.301Z,980.00
2023-04-06T10:11:22.309Z,1000.00
2023-04-06T10:12:22.306Z,1028.00
2023-04-06T10:13:22.326Z,1032.00
2023-04-06T10:14:22.322Z,1044.00
2023-04-06T10:15:23.130Z,1016.00
2023-04-06T10:16:22.401Z,964.00
2023-04-06T10:17:22.379Z,964.00
2023-04-06T10:18:22.353Z,1028.00
2023-04-06T10:19:22.364Z,1052.00
2023-04-06T10:20:22.367Z,1064.00
2023-04-06T10:21:22.381Z,1080.00
2023-04-06T10:22:22.376Z,1092.00
2023-04-06T10:23:22.388Z,1104.00
2023-04-06T10:24:22.394Z,1112.00
2023-04-06T10:25:22.403Z,1112.00
2023-04-06T10:26:22.482Z,1112.00
2023-04-06T10:27:22.418Z,1116.00
2023-04-06T10:28:22.425Z,1132.00
2023-04-06T10:29:22.446Z,1088.00
2023-04-06T10:30:22.445Z,1144.00
2023-04-06T10:31:22.469Z,1152.00
2023-04-06T10:32:22.522Z,1160.00
2023-04-06T10:33:22.473Z,1140.00
2023-04-06T10:34:22.476Z,988.00
2023-04-06T10:35:22.493Z,1160.00
2023-04-06T10:36:22.500Z,1156.00
2023-04-06T10:37:22.527Z,1160.00
2023-04-06T10:38:22.504Z,1156.00
2023-04-06T10:39:22.516Z,1180.00
2023-04-06T10:40:22.515Z,1200.00
2023-04-06T10:41:22.537Z,1192.00
2023-04-06T10:42:22.535Z,1172.00
2023-04-06T10:43:22.626Z,1216.00
2023-04-06T10:44:22.574Z,1240.00
2023-04-06T10:45:22.559Z,1248.00
2023-04-06T10:46:22.662Z,1248.00
2023-04-06T10:47:22.725Z,1260.00
2023-04-06T10:48:22.610Z,1252.00
2023-04-06T10:49:22.919Z,1216.00
2023-04-06T10:50:22.613Z,1264.00
2023-04-06T10:51:22.608Z,1252.00
2023-04-06T10:52:22.620Z,1252.00
2023-04-06T10:53:22.623Z,1260.00
2023-04-06T10:54:22.636Z,1276.00
2023-04-06T10:55:22.639Z,1248.00
2023-04-06T10:56:22.660Z,1172.00
2023-04-06T10:57:22.655Z,1280.00
2023-04-06T10:58:22.665Z,1296.00
2023-04-06T10:59:22.899Z,1276.00
2023-04-06T11:00:22.687Z,1280.00
2023-04-06T11:01:22.996Z,1280.00
2023-04-06T11:02:22.708Z,1256.00
2023-04-06T11:03:22.703Z,1276.00
2023-04-06T11:04:22.739Z,1272.00
2023-04-06T11:05:22.723Z,1260.00
2023-04-06T11:06:22.731Z,1260.00
2023-04-06T11:07:22.745Z,1280.00
2023-04-06T11:08:22.745Z,1280.00
2023-04-06T11:09:22.751Z,1288.00
2023-04-06T11:10:22.817Z,1272.00
2023-04-06T11:11:22.820Z,1272.00
2023-04-06T11:12:22.778Z,1244.00
2023-04-06T11:13:22.789Z,1276.00
2023-04-06T11:14:22.802Z,1304.00
2023-04-06T11:15:22.806Z,1312.00
2023-04-06T11:16:22.864Z,1252.00
2023-04-06T11:17:22.810Z,1272.00
2023-04-06T11:18:22.831Z,1232.00
2023-04-06T11:19:22.829Z,1144.00
2023-04-06T11:20:22.859Z,1072.00
2023-04-06T11:21:22.846Z,1056.00
2023-04-06T11:22:22.866Z,1128.00
2023-04-06T11:23:22.860Z,1164.00
2023-04-06T11:24:22.872Z,1144.00
2023-04-06T11:25:22.882Z,1136.00
2023-04-06T11:26:22.887Z,1196.00
2023-04-06T11:27:22.896Z,1176.00
2023-04-06T11:28:22.905Z,1160.00
2023-04-06T11:29:22.924Z,1140.00
2023-04-06T11:30:22.922Z,1144.00
2023-04-06T11:31:22.935Z,1144.00
2023-04-06T11:32:22.989Z,1148.00
2023-04-06T11:33:22.949Z,1148.00
2023-04-06T11:34:22.961Z,1096.00
2023-04-06T11:35:22.988Z,1064.00
2023-04-06T11:36:23.051Z,1060.00
2023-04-06T11:37:22.985Z,1064.00
2023-04-06T11:38:23.010Z,1100.00
2023-04-06T11:39:22.995Z,1096.00
2023-04-06T11:40:23.002Z,1108.00
2023-04-06T11:41:23.005Z,1112.00
2023-04-06T11:42:23.019Z,1128.00
2023-04-06T11:43:23.084Z,1168.00
2023-04-06T11:44:23.033Z,1184.00
2023-04-06T11:45:23.052Z,1228.00
2023-04-06T11:46:23.066Z,1228.00
2023-04-06T11:47:23.086Z,1332.00
2023-04-06T11:48:23.763Z,1284.00
2023-04-06T11:49:23.165Z,1300.00
2023-04-06T11:50:23.082Z,1320.00
2023-04-06T11:51:23.090Z,1304.00
2023-04-06T11:52:23.124Z,1272.00
2023-04-06T11:53:23.102Z,1228.00
2023-04-06T11:54:23.114Z,1252.00
2023-04-06T11:55:23.119Z,1280.00
2023-04-06T11:56:23.131Z,1320.00
2023-04-06T11:57:23.136Z,1348.00
2023-04-06T11:58:23.146Z,1324.00
2023-04-06T11:59:23.169Z,1352.00
2023-04-06T12:00:23.177Z,1424.00
2023-04-06T12:01:23.165Z,1368.00
2023-04-06T12:02:23.439Z,1392.00
2023-04-06T12:03:23.449Z,1560.00
2023-04-06T12:04:23.222Z,1556.00
2023-04-06T12:05:23.202Z,1364.00
2023-04-06T12:06:23.208Z,1340.00
2023-04-06T12:07:23.214Z,1388.00
2023-04-06T12:08:23.292Z,1372.00
2023-04-06T12:09:23.234Z,1316.00
2023-04-06T12:10:23.245Z,1352.00
2023-04-06T12:11:23.255Z,1520.00
2023-04-06T12:12:23.262Z,1548.00
2023-04-06T12:13:23.262Z,1396.00
2023-04-06T12:14:23.281Z,1468.00
2023-04-06T12:15:23.282Z,1348.00
2023-04-06T12:16:23.376Z,1516.00
2023-04-06T12:17:23.322Z,1548.00
2023-04-06T12:18:23.312Z,1500.00
2023-04-06T12:19:23.321Z,1328.00
2023-04-06T12:20:27.097Z,1472.00
2023-04-06T12:21:23.335Z,1488.00
2023-04-06T12:22:23.346Z,1392.00
2023-04-06T12:23:23.356Z,1224.00
2023-04-06T12:24:23.398Z,1112.00
2023-04-06T12:25:23.385Z,1160.00
2023-04-06T12:26:23.384Z,1112.00
2023-04-06T12:27:23.399Z,1008.00
2023-04-06T12:28:23.401Z,1036.00
2023-04-06T12:29:23.406Z,912.00
2023-04-06T12:30:23.428Z,920.00
2023-04-06T12:31:23.479Z,932.00
2023-04-06T12:32:23.513Z,940.00
2023-04-06T12:33:23.498Z,952.00
2023-04-06T12:34:23.461Z,980.00
2023-04-06T12:35:23.473Z,932.00
2023-04-06T12:36:23.509Z,912.00
2023-04-06T12:37:23.484Z,904.00
2023-04-06T12:38:23.496Z,932.00
2023-04-06T12:39:23.504Z,924.00
2023-04-06T12:40:23.556Z,1060.00
2023-04-06T12:41:23.517Z,992.00
2023-04-06T12:42:23.542Z,968.00
2023-04-06T12:43:23.557Z,1056.00
2023-04-06T12:44:25.409Z,1104.00
2023-04-06T12:45:23.576Z,1044.00
2023-04-06T12:46:23.589Z,876.00